createdAt,value
2018-03-24T00:02:23.859Z,3.50
2018-03-24T00:04:51.833Z,3.60
2018-03-24T00:07:19.902Z,3.60
2018-03-24T00:09:48.277Z,3.50
2018-03-24T00:12:16.533Z,3.40
2018-03-24T00:14:44.557Z,3.30
2018-03-24T00:17:13.406Z,3.30
2018-03-24T00:19:41.483Z,3.30
2018-03-24T00:22:09.358Z,3.30
2018-03-24T00:24:37.314Z,3.30
2018-03-24T00:27:05.519Z,3.40
2018-03-24T00:29:33.362Z,3.50
2018-03-24T00:32:01.429Z,3.60
2018-03-24T00:34:29.189Z,3.60
2018-03-24T00:36:57.259Z,3.60
2018-03-24T00:39:25.127Z,3.60
2018-03-24T00:41:53.094Z,3.70
2018-03-24T00:44:21.055Z,3.60
2018-03-24T00:46:48.925Z,3.50
2018-03-24T00:49:17.000Z,3.50
2018-03-24T00:51:45.097Z,3.60
2018-03-24T00:54:13.147Z,3.60
2018-03-24T00:56:41.214Z,3.60
2018-03-24T00:59:09.193Z,3.60
2018-03-24T01:01:38.477Z,3.30
2018-03-24T01:04:06.703Z,3.30
2018-03-24T01:06:35.744Z,3.40
2018-03-24T01:09:04.128Z,3.40
2018-03-24T01:11:32.146Z,3.50
2018-03-24T01:14:00.059Z,3.30
2018-03-24T01:16:27.928Z,3.30
2018-03-24T01:18:55.893Z,3.40
2018-03-24T01:21:23.791Z,3.40
2018-03-24T01:23:51.837Z,3.20
2018-03-24T01:26:20.774Z,3.00
2018-03-24T01:28:49.797Z,2.90
2018-03-24T01:31:17.793Z,2.90
2018-03-24T01:33:45.653Z,2.90
2018-03-24T01:36:13.735Z,3.00
2018-03-24T01:38:41.728Z,3.10
2018-03-24T01:41:10.698Z,3.20
2018-03-24T01:43:38.654Z,3.10
2018-03-24T01:46:06.624Z,3.30
2018-03-24T01:48:34.590Z,3.30
2018-03-24T01:51:02.658Z,3.30
2018-03-24T01:53:42.504Z,3.40
2018-03-24T01:56:10.610Z,3.30
2018-03-24T01:58:38.443Z,3.40
2018-03-24T02:01:06.339Z,3.40
2018-03-24T02:03:34.284Z,3.40
2018-03-24T02:06:02.045Z,3.40
2018-03-24T02:08:30.008Z,3.20
2018-03-24T02:10:57.978Z,3.30
2018-03-24T02:13:25.979Z,3.30
2018-03-24T02:15:54.938Z,3.30
2018-03-24T02:18:22.708Z,3.30
2018-03-24T02:20:56.757Z,3.40
2018-03-24T02:23:25.297Z,3.30
2018-03-24T02:25:53.263Z,3.30
2018-03-24T02:28:21.262Z,3.10
2018-03-24T02:30:49.333Z,3.30
2018-03-24T02:33:17.584Z,3.10
2018-03-24T02:35:45.559Z,3.20
2018-03-24T02:38:13.635Z,3.20
2018-03-24T02:40:41.900Z,3.30
2018-03-24T02:43:09.982Z,3.30
2018-03-24T02:45:37.843Z,3.30
2018-03-24T02:48:05.706Z,3.30
2018-03-24T02:50:33.563Z,3.30
2018-03-24T02:53:01.534Z,3.20
2018-03-24T02:55:29.603Z,3.30
2018-03-24T02:57:57.371Z,3.30
2018-03-24T03:00:25.361Z,3.40
2018-03-24T03:02:53.720Z,3.40
2018-03-24T03:05:22.408Z,3.40
2018-03-24T03:07:50.263Z,3.30
2018-03-24T03:10:18.332Z,3.40
2018-03-24T03:12:46.539Z,3.40
2018-03-24T03:15:14.672Z,3.30
2018-03-24T03:17:42.753Z,3.20
2018-03-24T03:20:10.858Z,3.10
2018-03-24T03:22:39.813Z,2.70
2018-03-24T03:25:07.784Z,2.70
2018-03-24T03:27:35.756Z,2.50
2018-03-24T03:30:04.129Z,2.40
2018-03-24T03:32:31.993Z,2.40
2018-03-24T03:35:00.170Z,2.60
2018-03-24T03:37:28.274Z,2.70
2018-03-24T03:39:56.417Z,2.70
2018-03-24T03:42:24.489Z,2.70
2018-03-24T03:44:52.373Z,2.60
2018-03-24T03:47:20.444Z,2.70
2018-03-24T03:49:48.699Z,2.80
2018-03-24T03:52:16.573Z,2.80
2018-03-24T03:54:44.534Z,2.80
2018-03-24T03:57:12.293Z,2.90
2018-03-24T03:59:40.264Z,3.00
2018-03-24T04:02:08.433Z,3.10
2018-03-24T04:04:36.318Z,3.00
2018-03-24T04:07:05.400Z,3.00
2018-03-24T04:09:33.263Z,3.10
2018-03-24T04:12:01.574Z,3.00
2018-03-24T04:14:29.513Z,3.00
2018-03-24T04:16:57.784Z,3.00
2018-03-24T04:19:25.771Z,3.00
2018-03-24T04:21:53.718Z,3.00
2018-03-24T04:24:21.488Z,3.00
2018-03-24T04:26:49.753Z,3.00
2018-03-24T04:29:17.827Z,3.10
2018-03-24T04:31:45.898Z,3.10
2018-03-24T04:34:13.874Z,3.10
2018-03-24T04:36:41.934Z,3.10
2018-03-24T04:39:10.014Z,3.10
2018-03-24T04:41:37.985Z,3.20
2018-03-24T04:44:06.158Z,3.10
2018-03-24T04:46:34.323Z,3.10
2018-03-24T04:49:02.292Z,3.10
2018-03-24T04:51:30.271Z,3.20
2018-03-24T04:53:58.359Z,3.00
2018-03-24T04:56:26.223Z,2.90
2018-03-24T04:58:54.197Z,2.90
2018-03-24T05:01:22.444Z,3.00
2018-03-24T05:03:50.434Z,2.90
2018-03-24T05:06:18.398Z,2.80
2018-03-24T05:08:46.353Z,2.80
2018-03-24T05:11:14.204Z,2.80
2018-03-24T05:13:42.288Z,2.80
2018-03-24T05:16:10.480Z,2.90
2018-03-24T05:18:38.628Z,2.90
2018-03-24T05:21:06.804Z,2.90
2018-03-24T05:23:34.774Z,2.80
2018-03-24T05:26:02.983Z,2.70
2018-03-24T05:28:31.838Z,2.90
2018-03-24T05:30:59.846Z,2.80
2018-03-24T05:33:27.673Z,2.90
2018-03-24T05:35:55.643Z,2.80
2018-03-24T05:38:23.813Z,2.70
2018-03-24T05:40:51.887Z,2.90
2018-03-24T05:43:20.062Z,2.90
2018-03-24T05:45:48.036Z,2.80
2018-03-24T05:48:16.013Z,2.80
2018-03-24T05:50:44.253Z,2.80
2018-03-24T05:53:11.938Z,2.80
2018-03-24T05:55:39.903Z,2.80
2018-03-24T05:58:08.172Z,2.80
2018-03-24T06:00:36.452Z,2.80
2018-03-24T06:03:04.423Z,2.80
2018-03-24T06:05:32.183Z,2.90
2018-03-24T06:08:00.150Z,3.10
2018-03-24T06:10:28.328Z,3.00
2018-03-24T06:12:56.628Z,3.00
2018-03-24T06:15:24.588Z,3.10
2018-03-24T06:17:52.537Z,3.30
2018-03-24T06:20:20.508Z,3.40
2018-03-24T06:22:48.589Z,3.40
2018-03-24T06:25:16.653Z,3.60
2018-03-24T06:27:44.409Z,3.60
2018-03-24T06:30:13.841Z,3.50
2018-03-24T06:32:42.091Z,3.50
2018-03-24T06:35:09.956Z,3.50
2018-03-24T06:37:38.034Z,3.70
2018-03-24T06:40:06.337Z,3.90
2018-03-24T06:42:35.091Z,4.30
2018-03-24T06:45:03.054Z,4.30
2018-03-24T06:47:31.023Z,4.40
2018-03-24T06:49:59.309Z,4.50
2018-03-24T06:52:27.226Z,4.50
2018-03-24T06:54:55.037Z,4.70
2018-03-24T06:57:23.207Z,4.80
2018-03-24T06:59:51.092Z,4.80
2018-03-24T07:02:18.964Z,4.90
2018-03-24T07:04:46.833Z,5.10
2018-03-24T07:07:15.392Z,5.20
2018-03-24T07:09:43.253Z,5.20
2018-03-24T07:12:11.342Z,5.00
2018-03-24T07:14:39.089Z,5.10
2018-03-24T07:17:07.165Z,5.20
2018-03-24T07:19:36.047Z,5.50
2018-03-24T07:22:04.329Z,5.40
2018-03-24T07:24:31.979Z,5.40
2018-03-24T07:27:00.082Z,5.20
2018-03-24T07:29:28.123Z,5.20
2018-03-24T07:31:56.094Z,5.20
2018-03-24T07:34:23.958Z,5.30
2018-03-24T07:36:51.958Z,5.20
2018-03-24T07:39:19.806Z,5.20
2018-03-24T07:41:47.662Z,5.20
2018-03-24T07:44:15.557Z,5.40
2018-03-24T07:46:43.504Z,5.40
2018-03-24T07:49:11.278Z,5.30
2018-03-24T07:51:39.639Z,5.10
2018-03-24T07:54:08.386Z,5.20
2018-03-24T07:56:36.387Z,5.30
2018-03-24T07:59:04.266Z,5.40
2018-03-24T08:01:32.335Z,5.50
2018-03-24T08:04:00.408Z,5.80
2018-03-24T08:06:28.098Z,5.70
2018-03-24T08:08:56.038Z,5.70
2018-03-24T08:11:24.108Z,5.90
2018-03-24T08:13:51.978Z,6.00
2018-03-24T08:16:19.991Z,5.90
2018-03-24T08:18:48.828Z,5.80
2018-03-24T08:21:16.798Z,5.70
2018-03-24T08:23:44.564Z,5.80
2018-03-24T08:26:12.428Z,5.90
2018-03-24T08:28:40.318Z,6.00
2018-03-24T08:31:08.261Z,6.00
2018-03-24T08:33:35.928Z,6.20
2018-03-24T08:36:03.788Z,6.40
2018-03-24T08:38:31.863Z,6.60
2018-03-24T08:40:59.558Z,6.70
2018-03-24T08:43:28.528Z,6.80
2018-03-24T08:45:56.162Z,6.70
2018-03-24T08:48:24.144Z,6.80
2018-03-24T08:50:52.318Z,7.00
2018-03-24T08:53:20.379Z,6.90
2018-03-24T08:55:48.459Z,6.90
2018-03-24T08:58:16.323Z,7.10
2018-03-24T09:00:44.603Z,7.60
2018-03-24T09:03:12.568Z,7.40
2018-03-24T09:05:40.548Z,7.10
2018-03-24T09:08:08.295Z,7.30
2018-03-24T09:10:36.084Z,7.30
2018-03-24T09:13:04.239Z,7.50
2018-03-24T09:15:32.119Z,7.60
2018-03-24T09:17:59.998Z,7.50
2018-03-24T09:20:27.843Z,7.40
2018-03-24T09:22:56.035Z,7.40
2018-03-24T09:25:23.908Z,7.20
2018-03-24T09:27:52.778Z,7.10
2018-03-24T09:30:20.740Z,7.10
2018-03-24T09:32:48.938Z,7.20
2018-03-24T09:35:16.783Z,7.20
2018-03-24T09:37:45.159Z,7.30
2018-03-24T09:40:13.122Z,7.50
2018-03-24T09:42:42.243Z,8.20
2018-03-24T09:45:10.289Z,8.20
2018-03-24T09:47:38.167Z,8.60
2018-03-24T09:50:06.034Z,9.10
2018-03-24T09:52:33.991Z,9.40
2018-03-24T09:55:02.283Z,9.60
2018-03-24T09:57:30.256Z,10.00
2018-03-24T09:59:58.006Z,10.50
2018-03-24T10:02:25.976Z,10.50
2018-03-24T10:04:54.959Z,11.00
2018-03-24T10:07:22.831Z,11.60
2018-03-24T10:09:50.905Z,11.40
2018-03-24T10:12:19.386Z,11.70
2018-03-24T10:14:47.353Z,11.40
2018-03-24T10:17:15.317Z,10.90
2018-03-24T10:19:43.209Z,10.60
2018-03-24T10:25:16.414Z,10.20
2018-03-24T10:27:44.625Z,10.30
2018-03-24T10:30:13.274Z,10.20
2018-03-24T10:32:41.915Z,10.20
2018-03-24T10:35:09.908Z,10.60
2018-03-24T10:37:43.504Z,11.20
2018-03-24T10:40:11.394Z,11.60
2018-03-24T10:42:39.166Z,10.90
2018-03-24T10:45:07.224Z,11.00
2018-03-24T10:47:35.176Z,11.20
2018-03-24T10:50:03.252Z,11.50
2018-03-24T10:52:31.374Z,11.90
2018-03-24T10:55:00.216Z,13.90
2018-03-24T10:57:28.290Z,13.80
2018-03-24T10:59:56.378Z,15.50
2018-03-24T11:02:24.267Z,17.20
2018-03-24T11:04:52.799Z,17.50
2018-03-24T11:07:20.896Z,17.50
2018-03-24T11:09:48.744Z,19.20
2018-03-24T11:12:16.529Z,19.70
2018-03-24T11:14:44.424Z,18.90
2018-03-24T11:17:13.060Z,14.80
2018-03-24T11:19:40.918Z,14.70
2018-03-24T11:22:09.093Z,13.80
2018-03-24T11:24:37.376Z,13.20
2018-03-24T11:27:05.331Z,12.80
2018-03-24T11:29:33.336Z,12.00
2018-03-24T11:32:01.077Z,11.90
2018-03-24T11:34:28.935Z,12.30
2018-03-24T11:36:56.905Z,13.40
2018-03-24T11:39:24.674Z,14.80
2018-03-24T11:41:52.433Z,14.60
2018-03-24T11:44:20.051Z,14.60
2018-03-24T11:46:47.864Z,14.40
2018-03-24T11:49:15.624Z,13.90
2018-03-24T11:51:43.709Z,14.30
2018-03-24T11:54:11.794Z,13.60
2018-03-24T11:56:39.628Z,13.10
2018-03-24T11:59:08.228Z,12.30
2018-03-24T12:01:36.084Z,12.10
2018-03-24T12:04:04.085Z,12.70
2018-03-24T12:06:32.743Z,12.30
2018-03-24T12:09:00.708Z,12.30
2018-03-24T12:11:28.459Z,12.10
2018-03-24T12:13:57.254Z,12.60
2018-03-24T12:16:25.255Z,12.60
2018-03-24T12:18:53.329Z,12.90
2018-03-24T12:21:21.466Z,13.50
2018-03-24T12:23:49.640Z,13.80
2018-03-24T12:26:17.628Z,14.50
2018-03-24T12:28:45.741Z,14.80
2018-03-24T12:31:13.556Z,15.60
2018-03-24T12:33:41.516Z,16.00
2018-03-24T12:36:09.717Z,14.40
2018-03-24T12:38:37.556Z,13.50
2018-03-24T12:41:05.324Z,12.40
2018-03-24T12:43:33.388Z,12.30
2018-03-24T12:46:01.366Z,12.80
2018-03-24T12:48:29.251Z,12.70
2018-03-24T12:50:57.432Z,12.40
2018-03-24T12:53:25.483Z,12.60
2018-03-24T12:55:53.243Z,12.10
2018-03-24T12:58:21.021Z,12.10
2018-03-24T13:00:49.270Z,11.80
2018-03-24T13:03:17.175Z,11.40
2018-03-24T13:05:45.108Z,11.50
2018-03-24T13:08:13.080Z,11.80
2018-03-24T13:10:41.353Z,12.50
2018-03-24T13:13:10.162Z,13.50
2018-03-24T13:15:38.212Z,14.90
2018-03-24T13:18:06.178Z,15.00
2018-03-24T13:20:34.369Z,14.80
2018-03-24T13:23:02.536Z,14.00
2018-03-24T13:25:31.437Z,12.80
2018-03-24T13:27:59.388Z,12.80
2018-03-24T13:30:27.672Z,12.50
2018-03-24T13:32:55.738Z,11.50
2018-03-24T13:35:23.711Z,11.40
2018-03-24T13:37:51.782Z,11.20
2018-03-24T13:40:19.840Z,11.00
2018-03-24T13:42:47.835Z,11.40
2018-03-24T13:45:15.675Z,11.90
2018-03-24T13:47:43.645Z,12.50
2018-03-24T13:50:11.515Z,12.40
2018-03-24T13:52:39.480Z,12.60
2018-03-24T13:55:07.580Z,12.40
2018-03-24T13:57:35.421Z,12.10
2018-03-24T14:00:04.263Z,11.70
2018-03-24T14:02:33.304Z,11.60
2018-03-24T14:05:01.302Z,11.50
2018-03-24T14:07:29.338Z,11.70
2018-03-24T14:09:57.512Z,11.50
2018-03-24T14:12:25.610Z,11.50
2018-03-24T14:14:53.560Z,11.50
2018-03-24T14:17:21.808Z,11.30
2018-03-24T14:19:49.605Z,11.20
2018-03-24T14:22:17.595Z,11.40
2018-03-24T14:24:45.339Z,11.40
2018-03-24T14:27:13.410Z,11.40
2018-03-24T14:29:41.155Z,11.30
2018-03-24T14:32:09.543Z,11.30
2018-03-24T14:34:37.713Z,11.30
2018-03-24T14:37:05.581Z,11.30
2018-03-24T14:39:33.446Z,10.90
2018-03-24T14:42:01.847Z,10.70
2018-03-24T14:44:29.722Z,10.60
2018-03-24T14:46:57.662Z,10.60
2018-03-24T14:49:25.830Z,10.40
2018-03-24T14:51:53.592Z,10.30
2018-03-24T14:54:21.362Z,10.20
2018-03-24T14:56:49.331Z,10.20
2018-03-24T14:59:17.203Z,10.20
2018-03-24T15:01:45.161Z,10.10
2018-03-24T15:04:13.146Z,9.90
2018-03-24T15:06:41.001Z,10.00
2018-03-24T15:09:08.962Z,10.10
2018-03-24T15:11:36.933Z,10.20
2018-03-24T15:14:05.030Z,10.30
2018-03-24T15:16:33.263Z,10.10
2018-03-24T15:19:01.260Z,9.80
2018-03-24T15:21:30.242Z,10.00
2018-03-24T15:23:58.725Z,10.10
2018-03-24T15:26:26.732Z,10.10
2018-03-24T15:29:07.464Z,10.10
2018-03-24T15:31:47.309Z,10.00
2018-03-24T15:34:26.788Z,10.10
2018-03-24T15:36:55.529Z,10.00
2018-03-24T15:39:23.602Z,10.00
2018-03-24T15:41:51.572Z,10.10
2018-03-24T15:44:19.538Z,10.10
2018-03-24T15:46:47.551Z,10.00
2018-03-24T15:49:16.092Z,10.10
2018-03-24T15:51:44.056Z,10.10
2018-03-24T15:54:11.945Z,10.10
2018-03-24T15:56:40.838Z,10.10
2018-03-24T15:59:08.919Z,10.10
2018-03-24T16:01:37.161Z,10.10
2018-03-24T16:04:05.372Z,10.10
2018-03-24T16:06:34.429Z,10.00
2018-03-24T16:09:03.322Z,10.00
2018-03-24T16:11:31.708Z,10.00
2018-03-24T16:13:59.574Z,9.90
2018-03-24T16:16:27.432Z,9.90
2018-03-24T16:18:55.502Z,9.90
2018-03-24T16:21:23.516Z,9.70
2018-03-24T16:23:52.173Z,9.50
2018-03-24T16:26:20.329Z,9.50
2018-03-24T16:28:48.320Z,9.60
2018-03-24T16:31:16.381Z,9.60
2018-03-24T16:33:44.337Z,9.60
2018-03-24T16:36:12.664Z,9.60
2018-03-24T16:38:41.196Z,9.40
2018-03-24T16:41:08.964Z,9.40
2018-03-24T16:43:36.819Z,9.40
2018-03-24T16:46:04.705Z,9.40
2018-03-24T16:48:32.676Z,9.40
2018-03-24T16:51:00.638Z,9.20
2018-03-24T16:53:28.605Z,9.00
2018-03-24T16:55:56.500Z,8.80
2018-03-24T16:58:25.246Z,8.60
2018-03-24T17:00:53.530Z,8.60
2018-03-24T17:03:21.407Z,8.50
2018-03-24T17:05:49.370Z,8.50
2018-03-24T17:08:17.354Z,8.40
2018-03-24T17:10:45.348Z,8.30
2018-03-24T17:13:13.922Z,8.10
2018-03-24T17:15:42.476Z,8.00
2018-03-24T17:18:10.459Z,8.00
2018-03-24T17:20:38.740Z,8.00
2018-03-24T17:23:06.574Z,7.90
2018-03-24T17:25:34.750Z,7.80
2018-03-24T17:28:02.707Z,7.70
2018-03-24T17:30:30.784Z,7.60
2018-03-24T17:32:58.689Z,7.50
2018-03-24T17:35:27.568Z,7.30
2018-03-24T17:37:57.052Z,7.30
2018-03-24T17:40:25.115Z,7.30
2018-03-24T17:42:52.786Z,7.30
2018-03-24T17:45:21.159Z,7.20
2018-03-24T17:47:49.131Z,7.10
2018-03-24T17:50:17.204Z,7.10
2018-03-24T17:52:45.067Z,7.00
2018-03-24T17:55:12.777Z,6.90
2018-03-24T17:57:41.408Z,6.80
2018-03-24T18:00:09.279Z,6.80
2018-03-24T18:02:37.038Z,6.80
2018-03-24T18:05:04.928Z,6.70
2018-03-24T18:07:32.693Z,6.70
2018-03-24T18:10:00.443Z,6.60
2018-03-24T18:12:28.401Z,6.50
2018-03-24T18:14:56.163Z,6.40
2018-03-24T18:17:24.156Z,6.40
2018-03-24T18:19:52.444Z,6.30
2018-03-24T18:22:22.467Z,6.20
2018-03-24T18:24:51.078Z,6.10
2018-03-24T18:27:23.428Z,6.00
2018-03-24T18:29:58.177Z,6.00
2018-03-24T18:32:28.510Z,5.90
2018-03-24T18:34:57.279Z,5.90
2018-03-24T18:37:27.562Z,5.80
2018-03-24T18:39:57.783Z,5.60
2018-03-24T18:42:26.555Z,5.60
2018-03-24T18:44:54.338Z,5.60
2018-03-24T18:47:22.183Z,5.60
2018-03-24T18:49:49.949Z,5.50
2018-03-24T18:52:17.758Z,5.50
2018-03-24T18:54:46.290Z,5.40
2018-03-24T18:57:13.969Z,5.40
2018-03-24T18:59:41.726Z,5.40
2018-03-24T19:02:09.484Z,5.40
2018-03-24T19:04:37.249Z,5.40
2018-03-24T19:07:04.928Z,5.40
2018-03-24T19:09:32.774Z,5.30
2018-03-24T19:12:00.440Z,5.20
2018-03-24T19:14:28.303Z,5.20
2018-03-24T19:16:56.274Z,5.20
2018-03-24T19:19:25.058Z,4.90
2018-03-24T19:21:52.830Z,4.90
2018-03-24T19:24:20.605Z,4.90
2018-03-24T19:26:48.291Z,4.80
2018-03-24T19:29:16.836Z,4.80
2018-03-24T19:31:44.594Z,4.80
2018-03-24T19:34:12.471Z,4.80
2018-03-24T19:36:40.329Z,4.70
2018-03-24T19:39:08.333Z,4.70
2018-03-24T19:41:37.090Z,4.60
2018-03-24T19:44:04.954Z,4.60
2018-03-24T19:46:32.713Z,4.60
2018-03-24T19:49:00.486Z,4.60
2018-03-24T19:51:28.334Z,4.70
2018-03-24T19:53:56.333Z,4.60
2018-03-24T19:56:24.179Z,4.50
2018-03-24T19:58:52.701Z,4.60
2018-03-24T20:01:21.344Z,4.40
2018-03-24T20:03:49.117Z,4.40
2018-03-24T20:06:16.880Z,4.40
2018-03-24T20:08:44.650Z,4.40
2018-03-24T20:11:12.733Z,4.40
2018-03-24T20:13:41.494Z,4.30
2018-03-24T20:16:09.773Z,4.30
2018-03-24T20:18:37.778Z,4.30
2018-03-24T20:21:06.323Z,4.20
2018-03-24T20:23:34.492Z,4.20
2018-03-24T20:26:02.593Z,4.20
2018-03-24T20:28:30.746Z,4.20
2018-03-24T20:30:59.089Z,4.20
2018-03-24T20:33:26.795Z,4.20
2018-03-24T20:35:54.649Z,4.10
2018-03-24T20:38:25.922Z,4.10
2018-03-24T20:40:58.908Z,4.00
2018-03-24T20:43:27.495Z,4.00
2018-03-24T20:45:55.449Z,4.00
2018-03-24T20:48:23.185Z,4.00
2018-03-24T20:50:51.267Z,4.00
2018-03-24T20:53:19.043Z,3.90
2018-03-24T20:55:53.839Z,3.90
2018-03-24T20:58:21.733Z,3.90
2018-03-24T21:00:49.804Z,3.70
2018-03-24T21:03:17.777Z,3.70
2018-03-24T21:05:45.565Z,3.60
2018-03-24T21:08:14.319Z,3.50
2018-03-24T21:10:42.389Z,3.50
2018-03-24T21:13:10.186Z,3.50
2018-03-24T21:15:40.516Z,3.30
2018-03-24T21:18:09.292Z,3.20
2018-03-24T21:20:37.051Z,3.20
2018-03-24T21:23:05.203Z,3.20
2018-03-24T21:25:33.168Z,3.20
2018-03-24T21:28:00.934Z,3.20
2018-03-24T21:30:28.802Z,3.20
2018-03-24T21:32:56.582Z,3.10
2018-03-24T21:35:24.453Z,3.00
2018-03-24T21:37:52.298Z,3.00
2018-03-24T21:40:20.469Z,3.10
2018-03-24T21:42:48.662Z,3.10
2018-03-24T21:45:16.533Z,3.00
2018-03-24T21:47:44.474Z,3.00
2018-03-24T21:50:12.649Z,3.00
2018-03-24T21:52:40.532Z,3.00
2018-03-24T21:55:08.623Z,3.00
2018-03-24T21:57:37.373Z,3.00
2018-03-24T22:00:05.468Z,3.00
2018-03-24T22:02:33.822Z,3.00
2018-03-24T22:05:01.788Z,2.90
2018-03-24T22:07:30.169Z,2.90
2018-03-24T22:09:58.239Z,2.80
2018-03-24T22:12:26.008Z,2.90
2018-03-24T22:14:53.973Z,2.80
2018-03-24T22:17:21.942Z,2.80
2018-03-24T22:19:50.013Z,2.70
2018-03-24T22:22:17.968Z,2.70
2018-03-24T22:24:45.958Z,2.70
2018-03-24T22:27:14.126Z,2.70
2018-03-24T22:29:42.094Z,2.60
2018-03-24T22:32:09.961Z,2.60
2018-03-24T22:34:38.036Z,2.60
2018-03-24T22:37:07.043Z,2.50
2018-03-24T22:39:34.912Z,2.50
2018-03-24T22:42:02.961Z,2.40
2018-03-24T22:44:30.724Z,2.40
2018-03-24T22:46:58.695Z,2.40
2018-03-24T22:49:26.608Z,2.40
2018-03-24T22:51:55.348Z,2.30
2018-03-24T22:54:23.314Z,2.30
2018-03-24T22:56:51.198Z,2.20
2018-03-24T22:59:19.166Z,2.20
2018-03-24T23:01:47.218Z,2.20
2018-03-24T23:04:15.493Z,2.20
2018-03-24T23:06:43.664Z,2.20
2018-03-24T23:09:11.653Z,2.20
2018-03-24T23:11:39.703Z,2.10
2018-03-24T23:14:07.676Z,2.10
2018-03-24T23:16:35.762Z,2.10
2018-03-24T23:19:03.849Z,2.00
2018-03-24T23:21:32.716Z,2.10
2018-03-24T23:24:00.596Z,2.10
2018-03-24T23:26:28.458Z,2.00
2018-03-24T23:28:56.408Z,2.10
2018-03-24T23:31:24.376Z,2.00
2018-03-24T23:33:52.354Z,1.90
2018-03-24T23:36:20.413Z,1.90
2018-03-24T23:38:48.382Z,1.80
2018-03-24T23:41:16.663Z,1.80
2018-03-24T23:43:44.839Z,1.80
2018-03-24T23:46:12.801Z,1.80
2018-03-24T23:48:40.689Z,1.70
2018-03-24T23:51:08.636Z,1.70
2018-03-24T23:53:36.610Z,1.70
2018-03-24T23:56:04.808Z,1.70
2018-03-24T23:58:32.876Z,1.70
